sensor_id;sensor_type;location;lat;lon;timestamp;temperature;humidity
3023;DHT22;1521;53.584;9.938;2022-08-24T00:01:14;19.80;99.90
3023;DHT22;1521;53.584;9.938;2022-08-24T00:03:40;19.80;99.90
3023;DHT22;1521;53.584;9.938;2022-08-24T00:06:09;19.80;99.90
3023;DHT22;1521;53.584;9.938;2022-08-24T00:08:36;19.70;99.90
3023;DHT22;1521;53.584;9.938;2022-08-24T00:11:03;19.60;99.90
3023;DHT22;1521;53.584;9.938;2022-08-24T00:13:29;19.50;99.90
3023;DHT22;1521;53.584;9.938;2022-08-24T00:15:54;19.50;99.90
3023;DHT22;1521;53.584;9.938;2022-08-24T00:18:21;19.30;99.90
3023;DHT22;1521;53.584;9.938;2022-08-24T00:20:47;19.30;99.90
3023;DHT22;1521;53.584;9.938;2022-08-24T00:23:14;19.30;99.90
3023;DHT22;1521;53.584;9.938;2022-08-24T00:25:40;19.20;99.90
3023;DHT22;1521;53.584;9.938;2022-08-24T00:28:06;19.20;99.90
3023;DHT22;1521;53.584;9.938;2022-08-24T00:30:32;19.20;99.90
3023;DHT22;1521;53.584;9.938;2022-08-24T00:32:58;19.10;99.90
3023;DHT22;1521;53.584;9.938;2022-08-24T00:35:24;19.10;99.90
3023;DHT22;1521;53.584;9.938;2022-08-24T00:37:51;19.00;99.90
3023;DHT22;1521;53.584;9.938;2022-08-24T00:40:29;19.00;99.90
3023;DHT22;1521;53.584;9.938;2022-08-24T00:42:59;19.00;99.90
3023;DHT22;1521;53.584;9.938;2022-08-24T00:45:29;19.00;99.90
3023;DHT22;1521;53.584;9.938;2022-08-24T00:48:04;19.00;99.90
3023;DHT22;1521;53.584;9.938;2022-08-24T00:50:40;19.00;99.90
3023;DHT22;1521;53.584;9.938;2022-08-24T00:53:22;19.10;99.90
3023;DHT22;1521;53.584;9.938;2022-08-24T00:55:51;19.10;99.90
3023;DHT22;1521;53.584;9.938;2022-08-24T00:58:23;19.00;99.90
3023;DHT22;1521;53.584;9.938;2022-08-24T01:00:54;19.00;99.90
3023;DHT22;1521;53.584;9.938;2022-08-24T01:03:21;19.00;99.90
3023;DHT22;1521;53.584;9.938;2022-08-24T01:05:47;19.00;99.90
3023;DHT22;1521;53.584;9.938;2022-08-24T01:08:14;19.00;99.90
3023;DHT22;1521;53.584;9.938;2022-08-24T01:10:46;19.00;99.90
3023;DHT22;1521;53.584;9.938;2022-08-24T01:13:14;19.00;99.90
3023;DHT22;1521;53.584;9.938;2022-08-24T01:15:43;18.90;99.90
3023;DHT22;1521;53.584;9.938;2022-08-24T01:18:24;18.80;99.90
3023;DHT22;1521;53.584;9.938;2022-08-24T01:21:21;18.80;99.90
3023;DHT22;1521;53.584;9.938;2022-08-24T01:23:53;18.90;99.90
3023;DHT22;1521;53.584;9.938;2022-08-24T01:28:56;18.80;99.90
3023;DHT22;1521;53.584;9.938;2022-08-24T01:31:24;18.80;99.90
3023;DHT22;1521;53.584;9.938;2022-08-24T01:33:53;18.80;99.90
3023;DHT22;1521;53.584;9.938;2022-08-24T01:38:59;18.80;99.90
3023;DHT22;1521;53.584;9.938;2022-08-24T01:41:26;18.70;99.90
3023;DHT22;1521;53.584;9.938;2022-08-24T01:43:52;18.70;99.90
3023;DHT22;1521;53.584;9.938;2022-08-24T01:46:18;18.60;99.90
3023;DHT22;1521;53.584;9.938;2022-08-24T01:48:43;18.60;99.90
3023;DHT22;1521;53.584;9.938;2022-08-24T01:51:09;18.70;99.90
3023;DHT22;1521;53.584;9.938;2022-08-24T01:53:35;18.70;99.90
3023;DHT22;1521;53.584;9.938;2022-08-24T01:56:01;18.70;99.90
3023;DHT22;1521;53.584;9.938;2022-08-24T01:58:27;18.70;99.90
3023;DHT22;1521;53.584;9.938;2022-08-24T02:00:52;18.70;99.90
3023;DHT22;1521;53.584;9.938;2022-08-24T02:03:18;18.70;99.90
3023;DHT22;1521;53.584;9.938;2022-08-24T02:05:44;18.70;99.90
3023;DHT22;1521;53.584;9.938;2022-08-24T02:08:10;18.70;99.90
3023;DHT22;1521;53.584;9.938;2022-08-24T02:10:36;18.60;99.90
3023;DHT22;1521;53.584;9.938;2022-08-24T02:13:02;18.60;99.90
3023;DHT22;1521;53.584;9.938;2022-08-24T02:15:31;18.50;99.90
3023;DHT22;1521;53.584;9.938;2022-08-24T02:17:57;18.50;99.90
3023;DHT22;1521;53.584;9.938;2022-08-24T02:20:24;18.40;99.90
3023;DHT22;1521;53.584;9.938;2022-08-24T02:22:50;18.50;99.90
3023;DHT22;1521;53.584;9.938;2022-08-24T02:25:17;18.50;99.90
3023;DHT22;1521;53.584;9.938;2022-08-24T02:27:44;18.40;99.90
3023;DHT22;1521;53.584;9.938;2022-08-24T02:30:10;18.30;99.90
3023;DHT22;1521;53.584;9.938;2022-08-24T02:32:35;18.30;99.90
3023;DHT22;1521;53.584;9.938;2022-08-24T02:35:01;18.30;99.90
3023;DHT22;1521;53.584;9.938;2022-08-24T02:37:27;18.30;99.90
3023;DHT22;1521;53.584;9.938;2022-08-24T02:39:52;18.30;99.90
3023;DHT22;1521;53.584;9.938;2022-08-24T02:42:18;18.30;99.90
3023;DHT22;1521;53.584;9.938;2022-08-24T02:44:44;18.30;99.90
3023;DHT22;1521;53.584;9.938;2022-08-24T02:47:09;18.30;99.90
3023;DHT22;1521;53.584;9.938;2022-08-24T02:49:35;18.30;99.90
3023;DHT22;1521;53.584;9.938;2022-08-24T02:52:02;18.30;99.90
3023;DHT22;1521;53.584;9.938;2022-08-24T02:54:28;18.30;99.90
3023;DHT22;1521;53.584;9.938;2022-08-24T02:56:54;18.20;99.90
3023;DHT22;1521;53.584;9.938;2022-08-24T02:59:20;18.20;99.90
3023;DHT22;1521;53.584;9.938;2022-08-24T03:01:46;18.30;99.90
3023;DHT22;1521;53.584;9.938;2022-08-24T03:04:12;18.40;99.90
3023;DHT22;1521;53.584;9.938;2022-08-24T03:06:38;18.30;99.90
3023;DHT22;1521;53.584;9.938;2022-08-24T03:09:05;18.30;99.90
3023;DHT22;1521;53.584;9.938;2022-08-24T03:11:31;18.30;99.90
3023;DHT22;1521;53.584;9.938;2022-08-24T03:13:57;18.30;99.90
3023;DHT22;1521;53.584;9.938;2022-08-24T03:16:27;18.30;99.90
3023;DHT22;1521;53.584;9.938;2022-08-24T03:18:53;18.30;99.90
3023;DHT22;1521;53.584;9.938;2022-08-24T03:21:19;18.30;99.90
3023;DHT22;1521;53.584;9.938;2022-08-24T03:23:45;18.30;99.90
3023;DHT22;1521;53.584;9.938;2022-08-24T03:26:11;18.30;99.90
3023;DHT22;1521;53.584;9.938;2022-08-24T03:28:37;18.30;99.90
3023;DHT22;1521;53.584;9.938;2022-08-24T03:31:03;18.20;99.90
3023;DHT22;1521;53.584;9.938;2022-08-24T03:33:29;18.20;99.90
3023;DHT22;1521;53.584;9.938;2022-08-24T03:35:54;18.10;99.90
3023;DHT22;1521;53.584;9.938;2022-08-24T03:38:20;18.10;99.90
3023;DHT22;1521;53.584;9.938;2022-08-24T03:40:46;18.10;99.90
3023;DHT22;1521;53.584;9.938;2022-08-24T03:43:12;18.10;99.90
3023;DHT22;1521;53.584;9.938;2022-08-24T03:45:58;18.10;99.90
3023;DHT22;1521;53.584;9.938;2022-08-24T03:48:26;18.00;99.90
3023;DHT22;1521;53.584;9.938;2022-08-24T03:50:53;18.00;99.90
3023;DHT22;1521;53.584;9.938;2022-08-24T03:53:19;18.00;99.90
3023;DHT22;1521;53.584;9.938;2022-08-24T03:55:45;18.00;99.90
3023;DHT22;1521;53.584;9.938;2022-08-24T03:58:11;18.00;99.90
3023;DHT22;1521;53.584;9.938;2022-08-24T04:00:36;18.00;99.90
3023;DHT22;1521;53.584;9.938;2022-08-24T04:03:08;17.90;99.90
3023;DHT22;1521;53.584;9.938;2022-08-24T04:05:35;17.90;1.00
3023;DHT22;1521;53.584;9.938;2022-08-24T04:08:01;17.90;1.00
3023;DHT22;1521;53.584;9.938;2022-08-24T04:10:27;18.00;1.00
3023;DHT22;1521;53.584;9.938;2022-08-24T04:12:53;18.00;1.00
3023;DHT22;1521;53.584;9.938;2022-08-24T04:15:19;18.00;1.00
3023;DHT22;1521;53.584;9.938;2022-08-24T04:17:44;17.90;1.00
3023;DHT22;1521;53.584;9.938;2022-08-24T04:20:10;18.00;1.00
3023;DHT22;1521;53.584;9.938;2022-08-24T04:22:36;18.00;1.00
3023;DHT22;1521;53.584;9.938;2022-08-24T04:25:03;18.00;1.00
3023;DHT22;1521;53.584;9.938;2022-08-24T04:27:29;17.90;1.00
3023;DHT22;1521;53.584;9.938;2022-08-24T04:29:55;17.90;1.00
3023;DHT22;1521;53.584;9.938;2022-08-24T04:32:20;17.90;1.00
3023;DHT22;1521;53.584;9.938;2022-08-24T04:34:46;17.90;1.00
3023;DHT22;1521;53.584;9.938;2022-08-24T04:37:13;17.90;1.00
3023;DHT22;1521;53.584;9.938;2022-08-24T04:39:39;17.90;1.00
3023;DHT22;1521;53.584;9.938;2022-08-24T04:42:06;17.80;1.00
3023;DHT22;1521;53.584;9.938;2022-08-24T04:44:32;17.80;1.00
3023;DHT22;1521;53.584;9.938;2022-08-24T04:46:58;17.90;1.00
3023;DHT22;1521;53.584;9.938;2022-08-24T04:49:24;17.90;1.00
3023;DHT22;1521;53.584;9.938;2022-08-24T04:51:49;17.90;1.00
3023;DHT22;1521;53.584;9.938;2022-08-24T04:54:15;17.90;1.00
3023;DHT22;1521;53.584;9.938;2022-08-24T04:56:41;17.90;1.00
3023;DHT22;1521;53.584;9.938;2022-08-24T04:59:06;17.90;1.00
3023;DHT22;1521;53.584;9.938;2022-08-24T05:01:32;17.90;1.00
3023;DHT22;1521;53.584;9.938;2022-08-24T05:03:58;17.80;1.00
3023;DHT22;1521;53.584;9.938;2022-08-24T05:06:27;17.80;1.00
3023;DHT22;1521;53.584;9.938;2022-08-24T05:08:53;17.90;1.00
3023;DHT22;1521;53.584;9.938;2022-08-24T05:11:20;17.90;1.00
3023;DHT22;1521;53.584;9.938;2022-08-24T05:13:46;17.90;1.00
3023;DHT22;1521;53.584;9.938;2022-08-24T05:16:14;17.90;1.00
3023;DHT22;1521;53.584;9.938;2022-08-24T05:18:41;17.90;1.00
3023;DHT22;1521;53.584;9.938;2022-08-24T05:21:08;17.90;1.00
3023;DHT22;1521;53.584;9.938;2022-08-24T05:23:35;17.90;1.00
3023;DHT22;1521;53.584;9.938;2022-08-24T05:26:11;17.90;1.00
3023;DHT22;1521;53.584;9.938;2022-08-24T05:28:37;18.00;1.00
3023;DHT22;1521;53.584;9.938;2022-08-24T05:31:16;18.00;1.00
3023;DHT22;1521;53.584;9.938;2022-08-24T05:33:42;18.00;1.00
3023;DHT22;1521;53.584;9.938;2022-08-24T05:36:27;18.10;1.00
3023;DHT22;1521;53.584;9.938;2022-08-24T05:38:55;18.20;1.00
3023;DHT22;1521;53.584;9.938;2022-08-24T05:41:21;18.20;1.00
3023;DHT22;1521;53.584;9.938;2022-08-24T05:43:47;18.30;1.00
3023;DHT22;1521;53.584;9.938;2022-08-24T05:46:13;18.40;1.00
3023;DHT22;1521;53.584;9.938;2022-08-24T05:48:39;18.40;1.00
3023;DHT22;1521;53.584;9.938;2022-08-24T05:51:06;18.60;1.00
3023;DHT22;1521;53.584;9.938;2022-08-24T05:53:32;18.60;1.00
3023;DHT22;1521;53.584;9.938;2022-08-24T05:56:02;18.70;1.00
3023;DHT22;1521;53.584;9.938;2022-08-24T05:58:28;19.00;1.00
3023;DHT22;1521;53.584;9.938;2022-08-24T06:00:54;19.10;1.00
3023;DHT22;1521;53.584;9.938;2022-08-24T06:03:19;19.30;1.00
3023;DHT22;1521;53.584;9.938;2022-08-24T06:05:45;19.50;1.00
3023;DHT22;1521;53.584;9.938;2022-08-24T06:08:13;19.70;1.00
3023;DHT22;1521;53.584;9.938;2022-08-24T06:10:43;19.80;99.90
3023;DHT22;1521;53.584;9.938;2022-08-24T06:13:10;20.00;99.90
3023;DHT22;1521;53.584;9.938;2022-08-24T06:15:37;20.20;99.90
3023;DHT22;1521;53.584;9.938;2022-08-24T06:18:04;20.40;99.90
3023;DHT22;1521;53.584;9.938;2022-08-24T06:20:30;20.60;99.90
3023;DHT22;1521;53.584;9.938;2022-08-24T06:22:56;20.80;99.90
3023;DHT22;1521;53.584;9.938;2022-08-24T06:25:22;20.90;99.90
3023;DHT22;1521;53.584;9.938;2022-08-24T06:28:06;21.10;99.90
3023;DHT22;1521;53.584;9.938;2022-08-24T06:30:32;21.30;99.90
3023;DHT22;1521;53.584;9.938;2022-08-24T06:32:59;21.50;99.90
3023;DHT22;1521;53.584;9.938;2022-08-24T06:35:25;21.70;99.90
3023;DHT22;1521;53.584;9.938;2022-08-24T06:37:50;21.90;99.90
3023;DHT22;1521;53.584;9.938;2022-08-24T06:40:16;22.00;99.90
3023;DHT22;1521;53.584;9.938;2022-08-24T06:42:45;22.20;99.90
3023;DHT22;1521;53.584;9.938;2022-08-24T06:45:11;22.30;99.90
3023;DHT22;1521;53.584;9.938;2022-08-24T06:47:37;22.50;99.90
3023;DHT22;1521;53.584;9.938;2022-08-24T06:50:03;22.70;99.90
3023;DHT22;1521;53.584;9.938;2022-08-24T06:52:31;22.90;99.90
3023;DHT22;1521;53.584;9.938;2022-08-24T06:54:57;23.10;99.90
3023;DHT22;1521;53.584;9.938;2022-08-24T06:57:23;23.20;99.90
3023;DHT22;1521;53.584;9.938;2022-08-24T06:59:48;23.30;99.90
3023;DHT22;1521;53.584;9.938;2022-08-24T07:02:14;23.40;99.90
3023;DHT22;1521;53.584;9.938;2022-08-24T07:04:44;23.50;99.90
3023;DHT22;1521;53.584;9.938;2022-08-24T07:07:10;23.60;99.90
3023;DHT22;1521;53.584;9.938;2022-08-24T07:09:36;23.90;99.90
3023;DHT22;1521;53.584;9.938;2022-08-24T07:12:02;24.10;99.90
3023;DHT22;1521;53.584;9.938;2022-08-24T07:14:27;24.40;99.90
3023;DHT22;1521;53.584;9.938;2022-08-24T07:16:53;24.60;99.90
3023;DHT22;1521;53.584;9.938;2022-08-24T07:19:19;24.80;99.90
3023;DHT22;1521;53.584;9.938;2022-08-24T07:21:44;24.90;99.90
3023;DHT22;1521;53.584;9.938;2022-08-24T07:24:10;25.10;99.90
3023;DHT22;1521;53.584;9.938;2022-08-24T07:26:37;25.20;99.90
3023;DHT22;1521;53.584;9.938;2022-08-24T07:29:10;25.30;99.90
3023;DHT22;1521;53.584;9.938;2022-08-24T07:31:39;25.40;99.90
3023;DHT22;1521;53.584;9.938;2022-08-24T07:34:07;25.30;99.90
3023;DHT22;1521;53.584;9.938;2022-08-24T07:36:34;25.20;99.90
3023;DHT22;1521;53.584;9.938;2022-08-24T07:39:00;25.50;99.90
3023;DHT22;1521;53.584;9.938;2022-08-24T07:41:27;25.50;99.90
3023;DHT22;1521;53.584;9.938;2022-08-24T07:43:53;25.80;99.90
3023;DHT22;1521;53.584;9.938;2022-08-24T07:46:20;26.10;99.90
3023;DHT22;1521;53.584;9.938;2022-08-24T07:48:46;26.30;99.90
3023;DHT22;1521;53.584;9.938;2022-08-24T07:51:14;26.30;99.90
3023;DHT22;1521;53.584;9.938;2022-08-24T07:53:40;26.60;99.90
3023;DHT22;1521;53.584;9.938;2022-08-24T07:56:06;26.80;99.90
3023;DHT22;1521;53.584;9.938;2022-08-24T07:58:32;27.00;99.90
3023;DHT22;1521;53.584;9.938;2022-08-24T08:00:58;27.00;99.90
3023;DHT22;1521;53.584;9.938;2022-08-24T08:03:24;27.30;99.90
3023;DHT22;1521;53.584;9.938;2022-08-24T08:05:59;27.60;99.90
3023;DHT22;1521;53.584;9.938;2022-08-24T08:08:26;27.80;99.90
3023;DHT22;1521;53.584;9.938;2022-08-24T08:10:53;28.00;99.90
3023;DHT22;1521;53.584;9.938;2022-08-24T08:13:19;28.10;99.90
3023;DHT22;1521;53.584;9.938;2022-08-24T08:15:44;28.30;99.90
3023;DHT22;1521;53.584;9.938;2022-08-24T08:18:11;28.40;99.90
3023;DHT22;1521;53.584;9.938;2022-08-24T08:20:39;28.50;99.90
3023;DHT22;1521;53.584;9.938;2022-08-24T08:23:06;28.60;99.90
3023;DHT22;1521;53.584;9.938;2022-08-24T08:25:52;28.90;99.90
3023;DHT22;1521;53.584;9.938;2022-08-24T08:28:20;29.30;99.90
3023;DHT22;1521;53.584;9.938;2022-08-24T08:30:46;29.60;99.90
3023;DHT22;1521;53.584;9.938;2022-08-24T08:33:12;29.70;99.90
3023;DHT22;1521;53.584;9.938;2022-08-24T08:35:38;29.80;99.90
3023;DHT22;1521;53.584;9.938;2022-08-24T08:38:05;29.80;99.90
3023;DHT22;1521;53.584;9.938;2022-08-24T08:43:28;29.90;99.90
3023;DHT22;1521;53.584;9.938;2022-08-24T08:46:20;30.00;99.90
3023;DHT22;1521;53.584;9.938;2022-08-24T08:54:56;30.60;99.90
3023;DHT22;1521;53.584;9.938;2022-08-24T08:57:50;30.90;99.90
3023;DHT22;1521;53.584;9.938;2022-08-24T09:00:22;31.00;99.90
3023;DHT22;1521;53.584;9.938;2022-08-24T09:06:05;30.90;99.90
3023;DHT22;1521;53.584;9.938;2022-08-24T09:20:22;30.60;99.90
3023;DHT22;1521;53.584;9.938;2022-08-24T09:22:44;30.50;99.90
3023;DHT22;1521;53.584;9.938;2022-08-24T09:25:46;30.40;99.90
3023;DHT22;1521;53.584;9.938;2022-08-24T09:28:43;30.50;99.90
3023;DHT22;1521;53.584;9.938;2022-08-24T09:34:16;30.30;99.90
3023;DHT22;1521;53.584;9.938;2022-08-24T09:59:13;28.90;99.90
3023;DHT22;1521;53.584;9.938;2022-08-24T10:10:06;28.90;99.90
3023;DHT22;1521;53.584;9.938;2022-08-24T10:15:15;29.60;99.90
3023;DHT22;1521;53.584;9.938;2022-08-24T10:18:21;29.70;99.90
3023;DHT22;1521;53.584;9.938;2022-08-24T10:21:11;30.00;99.90
3023;DHT22;1521;53.584;9.938;2022-08-24T10:23:48;30.10;99.90
3023;DHT22;1521;53.584;9.938;2022-08-24T10:37:22;31.70;99.90
3023;DHT22;1521;53.584;9.938;2022-08-24T10:40:14;31.90;99.90
3023;DHT22;1521;53.584;9.938;2022-08-24T10:54:24;33.70;99.90
3023;DHT22;1521;53.584;9.938;2022-08-24T10:57:28;33.90;99.90
3023;DHT22;1521;53.584;9.938;2022-08-24T11:00:13;34.00;99.90
3023;DHT22;1521;53.584;9.938;2022-08-24T11:02:42;34.30;99.90
3023;DHT22;1521;53.584;9.938;2022-08-24T11:05:10;34.60;99.90
3023;DHT22;1521;53.584;9.938;2022-08-24T11:07:37;34.90;99.90
3023;DHT22;1521;53.584;9.938;2022-08-24T11:10:27;35.40;99.90
3023;DHT22;1521;53.584;9.938;2022-08-24T11:12:53;35.90;99.90
3023;DHT22;1521;53.584;9.938;2022-08-24T11:15:25;35.80;99.90
3023;DHT22;1521;53.584;9.938;2022-08-24T11:17:56;35.70;99.90
3023;DHT22;1521;53.584;9.938;2022-08-24T11:23:03;35.60;99.90
3023;DHT22;1521;53.584;9.938;2022-08-24T11:25:34;35.50;99.90
3023;DHT22;1521;53.584;9.938;2022-08-24T11:28:17;35.60;99.90
3023;DHT22;1521;53.584;9.938;2022-08-24T11:30:44;35.60;99.90
3023;DHT22;1521;53.584;9.938;2022-08-24T11:33:46;35.90;99.90
3023;DHT22;1521;53.584;9.938;2022-08-24T11:36:20;36.00;99.90
3023;DHT22;1521;53.584;9.938;2022-08-24T11:38:45;36.30;99.90
3023;DHT22;1521;53.584;9.938;2022-08-24T11:46:51;36.40;99.90
3023;DHT22;1521;53.584;9.938;2022-08-24T11:55:00;37.00;99.90
3023;DHT22;1521;53.584;9.938;2022-08-24T12:00:21;37.30;99.90
3023;DHT22;1521;53.584;9.938;2022-08-24T12:06:05;37.20;99.90
3023;DHT22;1521;53.584;9.938;2022-08-24T12:19:09;37.30;99.90
3023;DHT22;1521;53.584;9.938;2022-08-24T12:21:38;37.30;99.90
3023;DHT22;1521;53.584;9.938;2022-08-24T12:24:06;37.40;99.90
3023;DHT22;1521;53.584;9.938;2022-08-24T12:26:49;37.00;99.90
3023;DHT22;1521;53.584;9.938;2022-08-24T12:29:28;37.20;99.90
3023;DHT22;1521;53.584;9.938;2022-08-24T12:31:58;36.90;99.90
3023;DHT22;1521;53.584;9.938;2022-08-24T12:34:42;36.70;99.90
3023;DHT22;1521;53.584;9.938;2022-08-24T12:39:50;36.20;99.90
3023;DHT22;1521;53.584;9.938;2022-08-24T12:42:22;36.40;99.90
3023;DHT22;1521;53.584;9.938;2022-08-24T12:45:00;36.80;99.90
3023;DHT22;1521;53.584;9.938;2022-08-24T12:47:35;37.10;99.90
3023;DHT22;1521;53.584;9.938;2022-08-24T12:50:29;37.00;99.90
3023;DHT22;1521;53.584;9.938;2022-08-24T12:55:53;37.00;99.90
3023;DHT22;1521;53.584;9.938;2022-08-24T13:01:20;37.10;99.90
3023;DHT22;1521;53.584;9.938;2022-08-24T13:04:00;37.30;99.90
3023;DHT22;1521;53.584;9.938;2022-08-24T13:06:51;37.20;99.90
3023;DHT22;1521;53.584;9.938;2022-08-24T13:17:54;36.40;99.90
3023;DHT22;1521;53.584;9.938;2022-08-24T13:20:22;36.70;99.90
3023;DHT22;1521;53.584;9.938;2022-08-24T13:31:13;36.70;99.90
3023;DHT22;1521;53.584;9.938;2022-08-24T13:33:50;36.80;99.90
3023;DHT22;1521;53.584;9.938;2022-08-24T14:06:29;36.40;99.90
3023;DHT22;1521;53.584;9.938;2022-08-24T14:09:42;36.40;99.90
3023;DHT22;1521;53.584;9.938;2022-08-24T14:12:19;36.30;99.90
3023;DHT22;1521;53.584;9.938;2022-08-24T14:17:45;36.40;99.90
3023;DHT22;1521;53.584;9.938;2022-08-24T14:32:26;35.40;99.90
3023;DHT22;1521;53.584;9.938;2022-08-24T14:37:16;35.50;99.90
3023;DHT22;1521;53.584;9.938;2022-08-24T14:39:57;35.30;99.90
3023;DHT22;1521;53.584;9.938;2022-08-24T14:42:56;35.20;99.90
3023;DHT22;1521;53.584;9.938;2022-08-24T14:48:11;35.00;99.90
3023;DHT22;1521;53.584;9.938;2022-08-24T14:59:32;34.30;99.90
3023;DHT22;1521;53.584;9.938;2022-08-24T15:02:34;34.20;99.90
3023;DHT22;1521;53.584;9.938;2022-08-24T15:07:37;34.00;99.90
3023;DHT22;1521;53.584;9.938;2022-08-24T15:10:11;33.80;99.90
3023;DHT22;1521;53.584;9.938;2022-08-24T15:12:48;33.90;99.90
3023;DHT22;1521;53.584;9.938;2022-08-24T15:27:06;33.10;99.90
3023;DHT22;1521;53.584;9.938;2022-08-24T15:29:44;32.90;99.90
3023;DHT22;1521;53.584;9.938;2022-08-24T15:32:11;32.80;99.90
3023;DHT22;1521;53.584;9.938;2022-08-24T15:39:53;32.60;99.90
3023;DHT22;1521;53.584;9.938;2022-08-24T15:42:19;32.40;99.90
3023;DHT22;1521;53.584;9.938;2022-08-24T15:44:47;32.20;99.90
3023;DHT22;1521;53.584;9.938;2022-08-24T15:47:28;32.00;99.90
3023;DHT22;1521;53.584;9.938;2022-08-24T15:49:59;31.90;99.90
3023;DHT22;1521;53.584;9.938;2022-08-24T15:52:49;31.70;99.90
3023;DHT22;1521;53.584;9.938;2022-08-24T15:55:30;31.50;99.90
3023;DHT22;1521;53.584;9.938;2022-08-24T15:58:29;31.50;99.90
3023;DHT22;1521;53.584;9.938;2022-08-24T16:03:45;31.10;99.90
3023;DHT22;1521;53.584;9.938;2022-08-24T16:08:56;30.80;99.90
3023;DHT22;1521;53.584;9.938;2022-08-24T16:14:23;30.70;99.90
3023;DHT22;1521;53.584;9.938;2022-08-24T16:16:51;30.40;99.90
3023;DHT22;1521;53.584;9.938;2022-08-24T16:19:37;30.20;99.90
3023;DHT22;1521;53.584;9.938;2022-08-24T16:22:07;30.00;99.90
3023;DHT22;1521;53.584;9.938;2022-08-24T16:24:37;29.80;99.90
3023;DHT22;1521;53.584;9.938;2022-08-24T16:27:12;29.60;99.90
3023;DHT22;1521;53.584;9.938;2022-08-24T16:34:47;29.20;99.90
3023;DHT22;1521;53.584;9.938;2022-08-24T16:37:15;29.00;99.90
3023;DHT22;1521;53.584;9.938;2022-08-24T16:39:41;28.90;99.90
3023;DHT22;1521;53.584;9.938;2022-08-24T16:42:11;28.80;99.90
3023;DHT22;1521;53.584;9.938;2022-08-24T16:44:40;28.70;99.90
3023;DHT22;1521;53.584;9.938;2022-08-24T16:47:07;28.60;99.90
3023;DHT22;1521;53.584;9.938;2022-08-24T16:49:34;28.50;99.90
3023;DHT22;1521;53.584;9.938;2022-08-24T16:52:01;28.40;99.90
3023;DHT22;1521;53.584;9.938;2022-08-24T16:54:28;28.30;99.90
3023;DHT22;1521;53.584;9.938;2022-08-24T16:56:55;28.30;99.90
3023;DHT22;1521;53.584;9.938;2022-08-24T16:59:30;28.20;99.90
3023;DHT22;1521;53.584;9.938;2022-08-24T17:01:57;28.10;99.90
3023;DHT22;1521;53.584;9.938;2022-08-24T17:04:23;28.00;99.90
3023;DHT22;1521;53.584;9.938;2022-08-24T17:06:50;28.00;99.90
3023;DHT22;1521;53.584;9.938;2022-08-24T17:09:17;27.90;99.90
3023;DHT22;1521;53.584;9.938;2022-08-24T17:11:44;27.80;99.90
3023;DHT22;1521;53.584;9.938;2022-08-24T17:14:12;27.70;99.90
3023;DHT22;1521;53.584;9.938;2022-08-24T17:16:38;27.60;99.90
3023;DHT22;1521;53.584;9.938;2022-08-24T17:19:08;27.50;99.90
3023;DHT22;1521;53.584;9.938;2022-08-24T17:21:36;27.40;99.90
3023;DHT22;1521;53.584;9.938;2022-08-24T17:24:03;27.30;99.90
3023;DHT22;1521;53.584;9.938;2022-08-24T17:26:29;27.30;99.90
3023;DHT22;1521;53.584;9.938;2022-08-24T17:28:56;27.20;99.90
3023;DHT22;1521;53.584;9.938;2022-08-24T17:31:23;27.20;99.90
3023;DHT22;1521;53.584;9.938;2022-08-24T17:33:49;27.10;99.90
3023;DHT22;1521;53.584;9.938;2022-08-24T17:36:17;27.00;99.90
3023;DHT22;1521;53.584;9.938;2022-08-24T17:38:47;26.90;99.90
3023;DHT22;1521;53.584;9.938;2022-08-24T17:41:13;26.80;99.90
3023;DHT22;1521;53.584;9.938;2022-08-24T17:43:39;26.70;99.90
3023;DHT22;1521;53.584;9.938;2022-08-24T17:46:07;26.50;99.90
3023;DHT22;1521;53.584;9.938;2022-08-24T17:48:34;26.40;99.90
3023;DHT22;1521;53.584;9.938;2022-08-24T17:51:00;26.30;99.90
3023;DHT22;1521;53.584;9.938;2022-08-24T17:53:25;26.30;99.90
3023;DHT22;1521;53.584;9.938;2022-08-24T17:55:51;26.20;99.90
3023;DHT22;1521;53.584;9.938;2022-08-24T17:58:17;26.10;99.90
3023;DHT22;1521;53.584;9.938;2022-08-24T18:00:43;26.00;99.90
3023;DHT22;1521;53.584;9.938;2022-08-24T18:03:09;26.00;99.90
3023;DHT22;1521;53.584;9.938;2022-08-24T18:05:35;26.00;99.90
3023;DHT22;1521;53.584;9.938;2022-08-24T18:08:01;25.80;99.90
3023;DHT22;1521;53.584;9.938;2022-08-24T18:10:29;25.80;99.90
3023;DHT22;1521;53.584;9.938;2022-08-24T18:13:00;25.60;99.90
3023;DHT22;1521;53.584;9.938;2022-08-24T18:15:28;25.40;99.90
3023;DHT22;1521;53.584;9.938;2022-08-24T18:17:56;25.10;99.90
3023;DHT22;1521;53.584;9.938;2022-08-24T18:20:27;24.90;99.90
3023;DHT22;1521;53.584;9.938;2022-08-24T18:22:55;24.70;99.90
3023;DHT22;1521;53.584;9.938;2022-08-24T18:25:22;24.40;99.90
3023;DHT22;1521;53.584;9.938;2022-08-24T18:27:51;24.30;99.90
3023;DHT22;1521;53.584;9.938;2022-08-24T18:30:26;24.30;99.90
3023;DHT22;1521;53.584;9.938;2022-08-24T18:32:52;24.10;99.90
3023;DHT22;1521;53.584;9.938;2022-08-24T18:35:18;24.00;99.90
3023;DHT22;1521;53.584;9.938;2022-08-24T18:37:44;23.90;99.90
3023;DHT22;1521;53.584;9.938;2022-08-24T18:40:11;23.80;99.90
3023;DHT22;1521;53.584;9.938;2022-08-24T18:42:37;23.70;99.90
3023;DHT22;1521;53.584;9.938;2022-08-24T18:45:06;23.60;99.90
3023;DHT22;1521;53.584;9.938;2022-08-24T18:47:32;23.50;99.90
3023;DHT22;1521;53.584;9.938;2022-08-24T18:49:58;23.60;99.90
3023;DHT22;1521;53.584;9.938;2022-08-24T18:52:24;23.60;99.90
3023;DHT22;1521;53.584;9.938;2022-08-24T18:54:50;23.50;99.90
3023;DHT22;1521;53.584;9.938;2022-08-24T18:57:17;23.40;99.90
3023;DHT22;1521;53.584;9.938;2022-08-24T18:59:43;23.40;99.90
3023;DHT22;1521;53.584;9.938;2022-08-24T19:02:12;23.40;99.90
3023;DHT22;1521;53.584;9.938;2022-08-24T19:07:43;23.20;99.90
3023;DHT22;1521;53.584;9.938;2022-08-24T19:10:11;23.20;99.90
3023;DHT22;1521;53.584;9.938;2022-08-24T19:12:41;23.10;99.90
3023;DHT22;1521;53.584;9.938;2022-08-24T19:15:08;23.00;99.90
3023;DHT22;1521;53.584;9.938;2022-08-24T19:17:34;23.00;99.90
3023;DHT22;1521;53.584;9.938;2022-08-24T19:19:59;22.90;99.90
3023;DHT22;1521;53.584;9.938;2022-08-24T19:22:25;23.00;99.90
3023;DHT22;1521;53.584;9.938;2022-08-24T19:24:52;23.00;99.90
3023;DHT22;1521;53.584;9.938;2022-08-24T19:27:18;23.00;99.90
3023;DHT22;1521;53.584;9.938;2022-08-24T19:29:44;22.80;99.90
3023;DHT22;1521;53.584;9.938;2022-08-24T19:32:11;22.80;99.90
3023;DHT22;1521;53.584;9.938;2022-08-24T19:34:39;22.70;99.90
3023;DHT22;1521;53.584;9.938;2022-08-24T19:37:05;22.60;99.90
3023;DHT22;1521;53.584;9.938;2022-08-24T19:39:31;22.50;99.90
3023;DHT22;1521;53.584;9.938;2022-08-24T19:41:56;22.50;99.90
3023;DHT22;1521;53.584;9.938;2022-08-24T19:44:22;22.50;99.90
3023;DHT22;1521;53.584;9.938;2022-08-24T19:47:07;22.40;99.90
3023;DHT22;1521;53.584;9.938;2022-08-24T19:49:33;22.40;99.90
3023;DHT22;1521;53.584;9.938;2022-08-24T19:51:59;22.30;99.90
3023;DHT22;1521;53.584;9.938;2022-08-24T19:54:37;22.30;99.90
3023;DHT22;1521;53.584;9.938;2022-08-24T19:59:50;22.20;99.90
3023;DHT22;1521;53.584;9.938;2022-08-24T20:02:16;22.10;99.90
3023;DHT22;1521;53.584;9.938;2022-08-24T20:04:42;22.10;99.90
3023;DHT22;1521;53.584;9.938;2022-08-24T20:07:13;22.10;99.90
3023;DHT22;1521;53.584;9.938;2022-08-24T20:09:38;22.00;99.90
3023;DHT22;1521;53.584;9.938;2022-08-24T20:12:04;22.00;99.90
3023;DHT22;1521;53.584;9.938;2022-08-24T20:14:30;21.90;99.90
3023;DHT22;1521;53.584;9.938;2022-08-24T20:16:56;21.90;99.90
3023;DHT22;1521;53.584;9.938;2022-08-24T20:19:22;21.80;99.90
3023;DHT22;1521;53.584;9.938;2022-08-24T20:21:47;21.70;99.90